Terminal Aerodrome Forecast
Issued by NWS Missoula, MT

Home | Current Version | Previous Version | Text Only | Print | Product List | Glossary On
Versions: 1 2 3 4 5 6 7 8 9 10 11 12 13 14 15 16 17 18 19 20 21 22 23 24 25 26
657
FTUS45 KMSO 310048 AAA
TAFMSO
TAF AMD
KMSO 310048Z 3101/3124 02010KT P6SM SCT100
     FM310200 32015G25KT P6SM VCSH SCT100
     FM310500 32010KT P6SM SKC
     FM310800 07008KT P6SM SKC
     FM311700 13006KT P6SM BKN200=

USA.gov is the U.S. government's official web portal to all federal, state and local government web resources and services.